Time,TemperatureF,DewpointF,PressureIn,WindDirection,WindDirectionDegrees,WindSpeedMPH,WindSpeedGustMPH,Humidity,HourlyPrecipIn,Conditions,Clouds,dailyrainin,SoftwareType,DateUTC
2013-06-25 00:02:00,82.0,76.0,26.41,ESE,119,17.0,28.0,82,0.00,,,0.04,,2013-06-25 04:02:00,
2013-06-25 00:11:00,81.0,75.0,26.41,ESE,110,12.0,19.0,83,0.00,,,0.04,,2013-06-25 04:11:00,
2013-06-25 00:22:00,81.0,76.0,26.41,SE,129,11.0,15.0,85,0.00,,,0.04,,2013-06-25 04:22:00,
2013-06-25 00:34:00,81.0,76.0,26.41,SE,135,19.0,21.0,86,0.00,,,0.04,,2013-06-25 04:34:00,
2013-06-25 00:43:00,81.0,76.0,26.41,SSE,148,16.0,23.0,86,0.00,,,0.04,,2013-06-25 04:43:00,
2013-06-25 00:52:00,82.0,77.0,26.41,SE,141,18.0,20.0,86,0.00,,,0.04,,2013-06-25 04:52:00,
2013-06-25 01:22:00,82.0,77.0,26.41,SE,136,15.0,22.0,85,0.00,,,0.04,,2013-06-25 05:22:00,
2013-06-25 01:32:00,82.0,77.0,26.41,SSE,148,19.0,21.0,86,0.00,,,0.04,,2013-06-25 05:32:00,
2013-06-25 01:44:00,81.0,76.0,26.41,SSE,155,18.0,26.0,85,0.00,,,0.04,,2013-06-25 05:44:00,
2013-06-25 01:52:00,81.0,76.0,26.41,SE,144,15.0,22.0,85,0.00,,,0.04,,2013-06-25 05:52:00,
2013-06-25 02:01:00,81.0,76.0,26.41,SE,134,14.0,19.0,85,0.00,,,0.04,,2013-06-25 06:01:00,
2013-06-25 02:11:00,81.0,76.0,26.41,SE,136,13.0,19.0,85,0.00,,,0.04,,2013-06-25 06:11:00,
2013-06-25 02:43:00,82.0,77.0,26.41,SE,132,15.0,20.0,84,0.00,,,0.04,,2013-06-25 06:43:00,
2013-06-25 02:52:00,82.0,77.0,26.41,SE,136,15.0,19.0,84,0.00,,,0.04,,2013-06-25 06:52:00,
2013-06-25 03:02:00,82.0,77.0,26.41,SE,136,17.0,20.0,84,0.00,,,0.04,,2013-06-25 07:02:00,
2013-06-25 03:11:00,82.0,77.0,26.41,SE,132,15.0,21.0,84,0.00,,,0.04,,2013-06-25 07:11:00,
2013-06-25 03:22:00,81.0,75.0,26.41,SE,134,15.0,20.0,83,0.00,,,0.04,,2013-06-25 07:22:00,
2013-06-25 03:33:00,82.0,77.0,26.41,SE,134,14.0,16.0,84,0.00,,,0.04,,2013-06-25 07:33:00,
2013-06-25 03:43:00,81.0,75.0,26.41,SE,130,13.0,17.0,83,0.00,,,0.04,,2013-06-25 07:43:00,
2013-06-25 03:52:00,81.0,75.0,26.41,SE,132,14.0,17.0,82,0.00,,,0.04,,2013-06-25 07:52:00,
2013-06-25 04:02:00,81.0,75.0,26.41,SE,135,13.0,17.0,82,0.00,,,0.04,,2013-06-25 08:02:00,
2013-06-25 04:11:00,81.0,75.0,26.41,SE,126,12.0,17.0,82,0.00,,,0.04,,2013-06-25 08:11:00,
2013-06-25 04:34:00,81.0,75.0,26.41,SE,133,14.0,17.0,83,0.00,,,0.04,,2013-06-25 08:34:00,
2013-06-25 04:43:00,81.0,75.0,26.41,SE,141,12.0,16.0,83,0.00,,,0.04,,2013-06-25 08:43:00,
2013-06-25 04:53:00,81.0,76.0,26.41,SE,140,15.0,16.0,84,0.00,,,0.04,,2013-06-25 08:53:00,
2013-06-25 05:02:00,81.0,75.0,26.41,SE,146,11.0,15.0,83,0.00,,,0.04,,2013-06-25 09:02:00,
2013-06-25 05:43:00,81.0,75.0,26.41,SE,135,12.0,17.0,83,0.00,,,0.03,,2013-06-25 09:43:00,
2013-06-25 05:52:00,81.0,75.0,26.41,SE,146,12.0,16.0,82,0.00,,,0.03,,2013-06-25 09:52:00,
2013-06-25 06:01:00,81.0,75.0,26.41,SE,132,13.0,17.0,82,0.00,,,0.03,,2013-06-25 10:01:00,
2013-06-25 06:42:00,81.0,75.0,26.41,SE,127,12.0,14.0,82,0.00,,,0.02,,2013-06-25 10:42:00,
2013-06-25 06:52:00,81.0,75.0,26.41,SE,135,14.0,15.0,83,0.00,,,0.02,,2013-06-25 10:52:00,
2013-06-25 07:52:00,81.0,75.0,26.41,SE,141,13.0,15.0,81,0.00,,,0.02,,2013-06-25 11:52:00,
2013-06-25 08:02:00,81.0,75.0,26.41,SSE,151,12.0,16.0,81,0.00,,,0.02,,2013-06-25 12:02:00,
2013-06-25 08:11:00,82.0,76.0,26.41,SE,134,13.0,16.0,81,0.00,,,0.01,,2013-06-25 12:11:00,
2013-06-25 08:22:00,82.0,75.0,26.41,SE,138,15.0,17.0,80,0.00,,,0.01,,2013-06-25 12:22:00,
2013-06-25 08:33:00,83.0,76.0,26.41,SE,142,13.0,19.0,80,0.00,,,0.01,,2013-06-25 12:33:00,
2013-06-25 09:53:00,86.0,77.0,26.41,SE,144,14.0,17.0,75,0.00,,,0.01,,2013-06-25 13:53:00,
2013-06-25 10:01:00,86.0,77.0,26.41,SE,140,16.0,18.0,75,0.00,,,0.01,,2013-06-25 14:01:00,
2013-06-25 10:11:00,85.0,76.0,26.41,SE,144,14.0,19.0,74,0.00,,,0.00,,2013-06-25 14:11:00,
2013-06-25 10:23:00,86.0,77.0,26.41,SE,142,16.0,19.0,75,0.00,,,0.00,,2013-06-25 14:23:00,
2013-06-25 10:34:00,86.0,77.0,26.41,SE,144,14.0,19.0,74,0.00,,,0.00,,2013-06-25 14:34:00,
2013-06-25 10:43:00,86.0,77.0,26.41,SE,136,14.0,17.0,74,0.00,,,0.00,,2013-06-25 14:43:00,
2013-06-25 10:53:00,87.0,78.0,26.41,SE,140,15.0,16.0,74,0.00,,,0.00,,2013-06-25 14:53:00,
2013-06-25 11:11:00,88.0,79.0,26.41,SSE,152,14.0,20.0,74,0.00,,,0.00,,2013-06-25 15:11:00,
2013-06-25 11:22:00,89.0,79.0,26.41,SSE,149,18.0,20.0,72,0.00,,,0.00,,2013-06-25 15:22:00,
2013-06-25 11:32:00,90.0,79.0,26.41,SSE,152,16.0,20.0,71,0.00,,,0.00,,2013-06-25 15:32:00,
2013-06-25 11:44:00,90.0,79.0,26.41,SSE,157,16.0,20.0,70,0.00,,,0.00,,2013-06-25 15:44:00,
2013-06-25 11:53:00,91.0,79.0,26.41,SSE,152,13.0,17.0,69,0.00,,,0.00,,2013-06-25 15:53:00,
2013-06-25 13:44:00,92.0,79.0,26.41,South,171,17.0,21.0,67,0.00,,,0.00,,2013-06-25 17:44:00,
2013-06-25 13:53:00,92.0,79.0,26.41,South,169,10.0,14.0,65,0.00,,,0.00,,2013-06-25 17:53:00,
2013-06-25 14:52:00,93.0,80.0,26.41,SSE,157,17.0,19.0,66,0.00,,,0.00,,2013-06-25 18:52:00,
2013-06-25 15:01:00,93.0,79.0,26.41,SE,143,16.0,18.0,63,0.00,,,0.00,,2013-06-25 19:01:00,
2013-06-25 15:44:00,93.0,78.0,26.41,SSE,167,15.0,19.0,62,0.00,,,0.00,,2013-06-25 19:44:00,
2013-06-25 15:53:00,92.0,78.0,26.41,SSE,162,14.0,19.0,64,0.00,,,0.00,,2013-06-25 19:53:00,
2013-06-25 16:02:00,92.0,79.0,26.41,SSE,159,15.0,17.0,66,0.00,,,0.00,,2013-06-25 20:02:00,
2013-06-25 17:43:00,83.0,75.0,26.41,South,188,20.0,25.0,78,0.00,,,0.00,,2013-06-25 21:43:00,
2013-06-25 17:53:00,82.0,75.0,26.41,South,175,20.0,27.0,80,0.00,,,0.00,,2013-06-25 21:53:00,
2013-06-25 18:01:00,84.0,76.0,26.41,SSE,165,21.0,23.0,78,0.00,,,0.00,,2013-06-25 22:01:00,
2013-06-25 18:11:00,85.0,77.0,26.41,SSE,163,16.0,22.0,76,0.00,,,0.00,,2013-06-25 22:11:00,
2013-06-25 18:22:00,86.0,76.0,26.41,South,169,17.0,19.0,72,0.00,,,0.00,,2013-06-25 22:22:00,
2013-06-25 18:42:00,86.0,76.0,26.41,SSE,166,14.0,20.0,73,0.00,,,0.00,,2013-06-25 22:42:00,
2013-06-25 18:52:00,85.0,76.0,26.41,SSE,150,14.0,17.0,74,0.00,,,0.00,,2013-06-25 22:52:00,
2013-06-25 19:11:00,83.0,76.0,26.41,SE,145,17.0,19.0,80,0.00,,,0.00,,2013-06-25 23:11:00,
2013-06-25 19:22:00,83.0,77.0,26.41,SSE,150,18.0,21.0,82,0.00,,,0.00,,2013-06-25 23:22:00,
2013-06-25 19:34:00,82.0,76.0,26.41,SE,146,17.0,20.0,83,0.00,,,0.00,,2013-06-25 23:34:00,
2013-06-25 19:44:00,82.0,77.0,26.41,SE,144,16.0,19.0,84,0.00,,,0.00,,2013-06-25 23:44:00,
2013-06-25 19:52:00,82.0,77.0,26.41,SSE,151,15.0,21.0,84,0.00,,,0.00,,2013-06-25 23:52:00,
2013-06-25 20:02:00,82.0,77.0,26.41,SSE,157,15.0,18.0,85,0.00,,,0.00,,2013-06-26 00:02:00,
2013-06-25 20:11:00,82.0,77.0,26.41,SE,144,16.0,19.0,85,0.01,,,0.01,,2013-06-26 00:11:00,
2013-06-25 20:22:00,82.0,77.0,26.41,SSE,156,13.0,22.0,85,0.01,,,0.01,,2013-06-26 00:22:00,
2013-06-25 20:33:00,82.0,77.0,26.41,SSE,152,15.0,19.0,85,0.01,,,0.01,,2013-06-26 00:33:00,
2013-06-25 20:42:00,82.0,77.0,26.41,SSE,150,17.0,19.0,86,0.01,,,0.01,,2013-06-26 00:42:00,
2013-06-25 20:52:00,82.0,77.0,26.41,SE,146,14.0,18.0,86,0.01,,,0.01,,2013-06-26 00:52:00,
2013-06-25 21:01:00,82.0,78.0,26.41,SE,142,13.0,16.0,87,0.01,,,0.01,,2013-06-26 01:01:00,
2013-06-25 21:11:00,82.0,78.0,26.41,SSE,154,14.0,18.0,87,0.00,,,0.01,,2013-06-26 01:11:00,
2013-06-25 21:22:00,81.0,77.0,26.41,SSE,152,14.0,19.0,87,0.00,,,0.01,,2013-06-26 01:22:00,
2013-06-25 21:33:00,81.0,76.0,26.41,SSE,150,16.0,19.0,86,0.00,,,0.01,,2013-06-26 01:33:00,
2013-06-25 21:43:00,82.0,77.0,26.41,SSE,154,16.0,20.0,86,0.00,,,0.01,,2013-06-26 01:43:00,
2013-06-25 21:53:00,81.0,76.0,26.41,SSE,152,16.0,20.0,86,0.00,,,0.01,,2013-06-26 01:53:00,
2013-06-25 22:02:00,82.0,77.0,26.41,SSE,154,18.0,21.0,86,0.00,,,0.01,,2013-06-26 02:02:00,
2013-06-25 22:43:00,82.0,78.0,26.41,SSE,156,17.0,20.0,88,0.00,,,0.01,,2013-06-26 02:43:00,
2013-06-25 22:53:00,82.0,78.0,26.41,SSE,153,19.0,21.0,88,0.00,,,0.01,,2013-06-26 02:53:00,
2013-06-25 23:02:00,82.0,78.0,26.41,SSE,165,17.0,21.0,88,0.00,,,0.01,,2013-06-26 03:02:00,
2013-06-25 23:43:00,81.0,77.0,26.41,SSE,165,18.0,20.0,89,0.01,,,0.02,,2013-06-26 03:43:00,
2013-06-25 23:52:00,82.0,78.0,26.41,South,169,18.0,21.0,89,0.01,,,0.02,,2013-06-26 03:52:00,